createdAt,value
2019-03-13T00:00:42.652Z,6.60
2019-03-13T00:03:11.554Z,6.60
2019-03-13T00:05:40.405Z,6.60
2019-03-13T00:08:09.497Z,6.60
2019-03-13T00:10:38.713Z,6.70
2019-03-13T00:13:07.663Z,6.70
2019-03-13T00:15:36.795Z,6.80
2019-03-13T00:18:06.189Z,6.80
2019-03-13T00:20:35.018Z,6.90
2019-03-13T00:23:03.868Z,6.90
2019-03-13T00:25:32.798Z,7.00
2019-03-13T00:28:01.663Z,7.00
2019-03-13T00:30:30.510Z,7.00
2019-03-13T00:32:59.509Z,7.10
2019-03-13T00:35:28.270Z,7.10
2019-03-13T00:37:57.279Z,7.20
2019-03-13T00:40:26.143Z,7.20
2019-03-13T00:42:54.898Z,7.20
2019-03-13T00:45:23.677Z,7.20
2019-03-13T00:47:52.448Z,7.20
2019-03-13T00:50:25.957Z,7.20
2019-03-13T00:52:54.737Z,7.10
2019-03-13T00:55:23.588Z,7.10
2019-03-13T00:57:52.547Z,7.10
2019-03-13T01:00:37.719Z,7.10
2019-03-13T01:03:09.072Z,7.10
2019-03-13T01:05:42.443Z,7.10
2019-03-13T01:08:11.257Z,7.10
2019-03-13T01:10:40.599Z,7.20
2019-03-13T01:13:09.352Z,7.20
2019-03-13T01:15:38.172Z,7.20
2019-03-13T01:18:06.966Z,7.30
2019-03-13T01:20:35.795Z,7.30
2019-03-13T01:23:04.602Z,7.30
2019-03-13T01:25:33.796Z,7.30
2019-03-13T01:28:02.817Z,7.20
2019-03-13T01:30:40.852Z,7.10
2019-03-13T01:33:12.915Z,7.10
2019-03-13T01:35:45.612Z,7.10
2019-03-13T01:38:14.427Z,7.10
2019-03-13T01:40:43.284Z,7.00
2019-03-13T01:43:12.362Z,7.00
2019-03-13T01:45:41.159Z,7.00
2019-03-13T01:48:10.258Z,7.00
2019-03-13T01:50:38.996Z,7.10
2019-03-13T01:53:07.764Z,7.10
2019-03-13T01:55:36.642Z,7.10
2019-03-13T01:58:05.623Z,7.10
2019-03-13T02:00:34.737Z,7.20
2019-03-13T02:03:03.788Z,7.20
2019-03-13T02:05:32.575Z,7.10
2019-03-13T02:08:01.341Z,7.10
2019-03-13T02:10:30.148Z,7.10
2019-03-13T02:12:59.250Z,7.10
2019-03-13T02:15:28.239Z,7.00
2019-03-13T02:17:57.234Z,7.00
2019-03-13T02:20:26.250Z,7.00
2019-03-13T02:22:55.003Z,7.10
2019-03-13T02:25:23.768Z,7.20
2019-03-13T02:27:52.805Z,7.20
2019-03-13T02:30:22.857Z,7.30
2019-03-13T02:32:51.910Z,7.20
2019-03-13T02:35:20.683Z,7.10
2019-03-13T02:37:49.430Z,7.20
2019-03-13T02:40:18.420Z,7.10
2019-03-13T02:42:47.200Z,7.10
2019-03-13T02:45:16.563Z,7.10
2019-03-13T02:47:45.339Z,7.00
2019-03-13T02:50:14.326Z,6.90
2019-03-13T02:52:43.384Z,6.80
2019-03-13T02:55:12.779Z,6.80
2019-03-13T02:57:41.896Z,6.70
2019-03-13T03:00:11.885Z,6.60
2019-03-13T03:02:49.828Z,6.60
2019-03-13T03:05:18.606Z,6.60
2019-03-13T03:07:47.369Z,6.60
2019-03-13T03:10:16.617Z,6.50
2019-03-13T03:12:45.675Z,6.60
2019-03-13T03:15:16.333Z,6.60
2019-03-13T03:17:45.196Z,6.60
2019-03-13T03:20:15.849Z,6.70
2019-03-13T03:22:44.712Z,6.70
2019-03-13T03:25:14.257Z,6.70
2019-03-13T03:27:43.181Z,6.80
2019-03-13T03:30:15.245Z,6.80
2019-03-13T03:32:44.346Z,6.80
2019-03-13T03:35:13.156Z,6.80
2019-03-13T03:37:41.948Z,6.80
2019-03-13T03:40:12.702Z,6.90
2019-03-13T03:42:41.527Z,6.90
2019-03-13T03:45:10.473Z,6.90
2019-03-13T03:47:39.626Z,7.00
2019-03-13T03:50:10.354Z,7.00
2019-03-13T03:52:39.203Z,7.00
2019-03-13T03:55:08.086Z,7.00
2019-03-13T03:57:44.250Z,7.00
2019-03-13T04:00:13.209Z,7.00
2019-03-13T04:02:42.087Z,7.00
2019-03-13T04:05:11.114Z,7.10
2019-03-13T04:07:40.253Z,7.00
2019-03-13T04:10:09.303Z,7.00
2019-03-13T04:12:38.105Z,7.00
2019-03-13T04:15:07.088Z,7.00
2019-03-13T04:17:36.147Z,7.00
2019-03-13T04:20:05.603Z,6.90
2019-03-13T04:22:34.789Z,7.00
2019-03-13T04:25:17.305Z,6.90
2019-03-13T04:27:46.464Z,6.80
2019-03-13T04:30:15.300Z,6.80
2019-03-13T04:32:44.106Z,6.80
2019-03-13T04:35:12.934Z,6.70
2019-03-13T04:37:41.694Z,6.60
2019-03-13T04:40:10.544Z,6.60
2019-03-13T04:42:39.374Z,6.50
2019-03-13T04:45:08.416Z,6.40
2019-03-13T04:47:37.223Z,6.40
2019-03-13T04:50:06.192Z,6.30
2019-03-13T04:52:35.543Z,6.20
2019-03-13T04:55:04.855Z,6.20
2019-03-13T04:57:33.634Z,6.20
2019-03-13T05:00:02.763Z,6.20
2019-03-13T05:02:31.582Z,6.10
2019-03-13T05:05:00.424Z,6.10
2019-03-13T05:07:29.243Z,6.00
2019-03-13T05:09:58.497Z,6.00
2019-03-13T05:12:27.275Z,5.90
2019-03-13T05:14:56.130Z,5.90
2019-03-13T05:17:24.973Z,5.80
2019-03-13T05:19:53.800Z,5.70
2019-03-13T05:22:22.536Z,5.60
2019-03-13T05:24:51.558Z,5.60
2019-03-13T05:27:20.351Z,5.50
2019-03-13T05:29:49.392Z,5.40
2019-03-13T05:32:18.253Z,5.40
2019-03-13T05:34:47.057Z,5.30
2019-03-13T05:37:17.325Z,5.20
2019-03-13T05:39:46.411Z,5.10
2019-03-13T05:42:15.295Z,5.00
2019-03-13T05:44:44.370Z,5.00
2019-03-13T05:47:13.168Z,4.90
2019-03-13T05:49:41.986Z,4.80
2019-03-13T05:52:11.303Z,4.80
2019-03-13T05:54:40.034Z,4.80
2019-03-13T05:57:09.124Z,4.80
2019-03-13T05:59:38.215Z,4.80
2019-03-13T06:02:06.999Z,4.80
2019-03-13T06:04:35.863Z,4.70
2019-03-13T06:07:04.684Z,4.70
2019-03-13T06:09:34.041Z,4.70
2019-03-13T06:12:02.882Z,4.80
2019-03-13T06:14:31.684Z,4.70
2019-03-13T06:17:01.276Z,4.70
2019-03-13T06:19:30.380Z,4.70
2019-03-13T06:21:59.189Z,4.70
2019-03-13T06:24:28.080Z,4.80
2019-03-13T06:26:57.200Z,4.80
2019-03-13T06:29:26.340Z,4.90
2019-03-13T06:31:55.180Z,5.00
2019-03-13T06:34:23.972Z,5.00
2019-03-13T06:36:52.716Z,5.10
2019-03-13T06:39:21.800Z,5.20
2019-03-13T06:41:50.737Z,5.30
2019-03-13T06:44:19.855Z,5.30
2019-03-13T06:46:49.036Z,5.20
2019-03-13T06:49:18.035Z,5.20
2019-03-13T06:51:46.820Z,5.40
2019-03-13T06:54:15.599Z,6.20
2019-03-13T06:56:44.387Z,7.00
2019-03-13T06:59:20.656Z,7.60
2019-03-13T07:01:58.348Z,8.30
2019-03-13T07:04:44.762Z,8.50
2019-03-13T07:07:25.067Z,9.10
2019-03-13T07:10:02.085Z,9.70
2019-03-13T07:12:59.238Z,10.20
2019-03-13T07:15:46.103Z,10.80
2019-03-13T07:18:29.433Z,11.00
2019-03-13T07:21:26.757Z,10.80
2019-03-13T07:24:05.543Z,10.80
2019-03-13T07:26:51.235Z,11.10
2019-03-13T07:29:36.320Z,10.60
2019-03-13T07:32:10.520Z,9.80
2019-03-13T07:34:57.226Z,10.00
2019-03-13T07:37:51.479Z,9.60
2019-03-13T07:40:42.250Z,8.50
2019-03-13T07:43:42.106Z,8.10
2019-03-13T07:46:42.244Z,8.30
2019-03-13T07:49:45.604Z,8.00
2019-03-13T07:52:32.714Z,8.10
2019-03-13T07:55:18.402Z,7.90
2019-03-13T07:58:04.718Z,7.60
2019-03-13T08:00:39.244Z,7.40
2019-03-13T08:03:26.211Z,7.40
2019-03-13T08:06:12.815Z,7.40
2019-03-13T08:08:53.344Z,7.40
2019-03-13T08:11:40.007Z,7.40
2019-03-13T08:14:26.739Z,7.40
2019-03-13T08:17:16.430Z,7.50
2019-03-13T08:19:55.300Z,7.60
2019-03-13T08:22:43.406Z,7.60
2019-03-13T08:25:18.186Z,7.70
2019-03-13T08:28:00.226Z,8.00
2019-03-13T08:30:48.347Z,9.00
2019-03-13T08:33:48.439Z,9.70
2019-03-13T08:36:24.015Z,10.50
2019-03-13T08:39:11.941Z,11.10
2019-03-13T08:41:59.928Z,10.50
2019-03-13T08:44:57.113Z,10.40
2019-03-13T08:47:34.014Z,10.90
2019-03-13T08:50:08.219Z,11.70
2019-03-13T08:52:54.747Z,11.60
2019-03-13T08:55:41.828Z,10.50
2019-03-13T08:58:25.975Z,10.50
2019-03-13T09:01:15.475Z,10.60
2019-03-13T09:03:55.494Z,10.20
2019-03-13T09:06:33.956Z,9.60
2019-03-13T09:09:19.300Z,9.60
2019-03-13T09:11:56.435Z,9.70
2019-03-13T09:14:43.425Z,9.00
2019-03-13T09:17:18.120Z,9.30
2019-03-13T09:19:56.829Z,10.40
2019-03-13T09:22:43.513Z,10.90
2019-03-13T09:25:27.395Z,11.90
2019-03-13T09:28:20.865Z,11.80
2019-03-13T09:31:01.394Z,11.60
2019-03-13T09:33:37.482Z,11.70
2019-03-13T09:36:43.556Z,12.30
2019-03-13T09:39:34.533Z,11.70
2019-03-13T09:42:22.491Z,10.90
2019-03-13T09:45:19.284Z,10.40
2019-03-13T09:48:03.062Z,9.70
2019-03-13T09:50:38.113Z,9.30
2019-03-13T09:53:24.309Z,9.10
2019-03-13T09:56:03.839Z,9.00
2019-03-13T09:58:57.841Z,8.90
2019-03-13T10:01:52.048Z,8.60
2019-03-13T10:04:33.609Z,8.40
2019-03-13T10:07:21.499Z,8.40
2019-03-13T10:10:14.014Z,8.30
2019-03-13T10:13:00.342Z,8.40
2019-03-13T10:15:47.021Z,8.50
2019-03-13T10:18:35.331Z,8.50
2019-03-13T10:21:13.930Z,8.50
2019-03-13T10:23:50.638Z,8.40
2019-03-13T10:26:28.921Z,8.60
2019-03-13T10:29:15.623Z,8.80
2019-03-13T10:32:09.682Z,9.00
2019-03-13T10:34:59.035Z,9.00
2019-03-13T10:37:36.295Z,9.20
2019-03-13T10:40:23.465Z,9.20
2019-03-13T10:43:11.415Z,8.90
2019-03-13T10:46:02.934Z,8.90
2019-03-13T10:48:59.885Z,8.70
2019-03-13T10:51:42.538Z,8.60
2019-03-13T10:54:32.056Z,8.60
2019-03-13T10:57:08.062Z,8.70
2019-03-13T10:59:44.741Z,8.80
2019-03-13T11:02:35.872Z,9.00
2019-03-13T11:05:25.080Z,9.10
2019-03-13T11:08:04.458Z,9.30
2019-03-13T11:10:39.119Z,9.40
2019-03-13T11:13:18.993Z,9.50
2019-03-13T11:16:02.192Z,9.40
2019-03-13T11:18:53.353Z,9.30
2019-03-13T11:21:44.948Z,9.30
2019-03-13T11:24:20.150Z,9.20
2019-03-13T11:26:54.413Z,9.30
2019-03-13T11:29:57.413Z,9.40
2019-03-13T11:32:51.073Z,9.50
2019-03-13T11:35:45.948Z,9.20
2019-03-13T11:38:31.342Z,9.10
2019-03-13T11:41:22.460Z,9.00
2019-03-13T11:44:01.825Z,8.90
2019-03-13T11:46:42.985Z,8.90
2019-03-13T11:49:41.285Z,8.80
2019-03-13T11:52:32.536Z,8.70
2019-03-13T11:55:12.927Z,8.70
2019-03-13T11:58:01.237Z,8.90
2019-03-13T12:00:47.797Z,9.00
2019-03-13T12:03:29.432Z,9.10
2019-03-13T12:06:17.481Z,9.20
2019-03-13T12:09:03.965Z,9.30
2019-03-13T12:11:40.739Z,9.40
2019-03-13T12:14:25.022Z,9.40
2019-03-13T12:17:05.765Z,9.30
2019-03-13T12:19:42.850Z,9.20
2019-03-13T12:22:29.182Z,9.10
2019-03-13T12:25:08.088Z,9.10
2019-03-13T12:27:55.958Z,9.00
2019-03-13T12:30:42.633Z,9.00
2019-03-13T12:33:29.563Z,8.80
2019-03-13T12:36:32.766Z,8.60
2019-03-13T12:39:08.958Z,8.70
2019-03-13T12:41:49.795Z,9.40
2019-03-13T12:44:40.853Z,10.50
2019-03-13T12:47:27.316Z,11.10
2019-03-13T12:50:24.328Z,11.10
2019-03-13T12:53:11.148Z,11.40
2019-03-13T12:55:57.272Z,12.00
2019-03-13T12:58:44.426Z,12.30
2019-03-13T13:01:25.702Z,11.70
2019-03-13T13:04:13.696Z,11.50
2019-03-13T13:07:01.755Z,11.70
2019-03-13T13:09:48.024Z,12.10
2019-03-13T13:12:33.066Z,12.60
2019-03-13T13:15:12.535Z,12.50
2019-03-13T13:18:09.129Z,12.40
2019-03-13T13:20:37.880Z,12.50
2019-03-13T13:23:06.643Z,12.40
2019-03-13T13:25:35.715Z,12.50
2019-03-13T13:28:05.109Z,12.90
2019-03-13T13:30:34.147Z,13.00
2019-03-13T13:33:02.907Z,12.40
2019-03-13T13:35:31.681Z,11.50
2019-03-13T13:38:00.450Z,10.90
2019-03-13T13:40:29.336Z,10.90
2019-03-13T13:42:58.090Z,11.80
2019-03-13T13:45:54.307Z,12.40
2019-03-13T13:48:23.346Z,12.10
2019-03-13T13:50:52.104Z,11.20
2019-03-13T13:53:20.922Z,10.70
2019-03-13T13:55:49.803Z,10.40
2019-03-13T13:58:18.840Z,10.30
2019-03-13T14:00:47.696Z,10.20
2019-03-13T14:03:16.484Z,10.20
2019-03-13T14:05:45.542Z,10.00
2019-03-13T14:08:14.316Z,9.90
2019-03-13T14:10:43.099Z,9.80
2019-03-13T14:13:12.096Z,9.80
2019-03-13T14:15:40.855Z,9.70
2019-03-13T14:18:09.695Z,9.70
2019-03-13T14:20:38.518Z,9.60
2019-03-13T14:23:07.279Z,9.50
2019-03-13T14:25:36.066Z,9.50
2019-03-13T14:28:04.917Z,9.50
2019-03-13T14:30:33.810Z,9.50
2019-03-13T14:33:02.671Z,9.40
2019-03-13T14:35:31.452Z,9.40
2019-03-13T14:38:00.179Z,9.50
2019-03-13T14:40:29.191Z,9.50
2019-03-13T14:42:58.219Z,9.60
2019-03-13T14:45:27.058Z,9.60
2019-03-13T14:47:55.879Z,9.60
2019-03-13T14:50:24.606Z,9.60
2019-03-13T14:52:53.319Z,9.50
2019-03-13T14:55:22.103Z,9.30
2019-03-13T14:57:51.118Z,9.30
2019-03-13T15:00:20.064Z,9.30
2019-03-13T15:02:48.950Z,9.40
2019-03-13T15:05:17.800Z,9.30
2019-03-13T15:07:46.782Z,9.20
2019-03-13T15:10:15.772Z,9.20
2019-03-13T15:12:44.568Z,9.20
2019-03-13T15:15:13.462Z,9.10
2019-03-13T15:17:42.507Z,9.10
2019-03-13T15:20:13.569Z,9.00
2019-03-13T15:22:42.432Z,9.00
2019-03-13T15:25:11.749Z,8.90
2019-03-13T15:27:40.487Z,9.00
2019-03-13T15:30:14.988Z,8.90
2019-03-13T15:32:43.776Z,8.90
2019-03-13T15:35:12.643Z,8.90
2019-03-13T15:37:41.499Z,8.80
2019-03-13T15:40:12.131Z,8.80
2019-03-13T15:42:40.887Z,8.90
2019-03-13T15:45:11.621Z,8.80
2019-03-13T15:47:40.400Z,8.80
2019-03-13T15:50:10.245Z,8.80
2019-03-13T15:52:39.136Z,8.80
2019-03-13T15:55:08.759Z,8.80
2019-03-13T15:57:37.752Z,8.80
2019-03-13T16:00:08.548Z,8.80
2019-03-13T16:02:37.553Z,8.70
2019-03-13T16:05:06.632Z,8.70
2019-03-13T16:07:35.448Z,8.70
2019-03-13T16:10:04.440Z,8.60
2019-03-13T16:12:33.392Z,8.60
2019-03-13T16:15:02.179Z,8.60
2019-03-13T16:17:30.956Z,8.60
2019-03-13T16:19:59.778Z,8.50
2019-03-13T16:22:29.138Z,8.50
2019-03-13T16:24:57.988Z,8.50
2019-03-13T16:27:26.791Z,8.40
2019-03-13T16:29:55.648Z,8.40
2019-03-13T16:32:24.768Z,8.40
2019-03-13T16:34:53.747Z,8.30
2019-03-13T16:37:22.507Z,8.30
2019-03-13T16:39:51.503Z,8.30
2019-03-13T16:42:20.267Z,8.30
2019-03-13T16:44:49.023Z,8.30
2019-03-13T16:47:17.874Z,8.30
2019-03-13T16:49:46.663Z,8.30
2019-03-13T16:52:15.589Z,8.30
2019-03-13T16:54:44.596Z,8.20
2019-03-13T16:57:13.456Z,8.30
2019-03-13T16:59:42.362Z,8.20
2019-03-13T17:02:11.409Z,8.20
2019-03-13T17:04:40.163Z,8.20
2019-03-13T17:07:09.436Z,8.20
2019-03-13T17:09:38.212Z,8.20
2019-03-13T17:12:07.312Z,8.20
2019-03-13T17:14:36.613Z,8.20
2019-03-13T17:17:05.394Z,8.20
2019-03-13T17:19:35.243Z,8.20
2019-03-13T17:22:04.094Z,8.20
2019-03-13T17:24:32.937Z,8.20
2019-03-13T17:27:02.000Z,8.20
2019-03-13T17:29:31.040Z,8.20
2019-03-13T17:31:59.792Z,8.20
2019-03-13T17:34:30.527Z,8.20
2019-03-13T17:36:59.392Z,8.20
2019-03-13T17:39:28.233Z,8.20
2019-03-13T17:41:57.096Z,8.20
2019-03-13T17:44:25.897Z,8.20
2019-03-13T17:46:54.658Z,8.20
2019-03-13T17:49:23.436Z,8.20
2019-03-13T17:51:52.904Z,8.20
2019-03-13T17:54:21.680Z,8.10
2019-03-13T17:56:50.702Z,8.20
2019-03-13T17:59:19.635Z,8.10
2019-03-13T18:01:48.484Z,8.10
2019-03-13T18:04:17.489Z,8.10
2019-03-13T18:06:46.548Z,8.10
2019-03-13T18:09:15.544Z,8.10
2019-03-13T18:11:44.343Z,8.10
2019-03-13T18:14:13.367Z,8.10
2019-03-13T18:16:42.120Z,8.10
2019-03-13T18:19:10.916Z,8.10
2019-03-13T18:21:39.726Z,8.10
2019-03-13T18:24:08.515Z,8.10
2019-03-13T18:26:37.351Z,8.00
2019-03-13T18:29:06.193Z,7.90
2019-03-13T18:31:35.241Z,8.00
2019-03-13T18:34:04.156Z,8.00
2019-03-13T18:36:33.120Z,7.90
2019-03-13T18:39:02.126Z,7.90
2019-03-13T18:41:31.006Z,7.90
2019-03-13T18:44:00.064Z,7.90
2019-03-13T18:46:28.843Z,8.00
2019-03-13T18:48:57.608Z,8.00
2019-03-13T18:51:26.762Z,7.90
2019-03-13T18:53:55.644Z,7.90
2019-03-13T18:56:24.776Z,7.90
2019-03-13T18:58:54.116Z,7.90
2019-03-13T19:01:23.131Z,7.80
2019-03-13T19:03:51.978Z,7.90
2019-03-13T19:06:20.856Z,7.90
2019-03-13T19:08:50.015Z,7.80
2019-03-13T19:11:19.013Z,7.80
2019-03-13T19:13:47.800Z,7.80
2019-03-13T19:16:16.853Z,7.80
2019-03-13T19:18:45.691Z,7.80
2019-03-13T19:21:14.764Z,7.80
2019-03-13T19:23:43.782Z,7.70
2019-03-13T19:26:12.627Z,7.70
2019-03-13T19:28:41.563Z,7.70
2019-03-13T19:31:10.467Z,7.70
2019-03-13T19:33:39.554Z,7.80
2019-03-13T19:36:08.399Z,7.70
2019-03-13T19:38:37.649Z,7.60
2019-03-13T19:41:08.929Z,7.60
2019-03-13T19:43:38.362Z,7.60
2019-03-13T19:46:07.477Z,7.50
2019-03-13T19:48:36.224Z,7.50
2019-03-13T19:51:04.978Z,7.50
2019-03-13T19:53:33.958Z,7.50
2019-03-13T19:56:02.731Z,7.40
2019-03-13T19:58:31.574Z,7.50
2019-03-13T20:01:00.542Z,7.50
2019-03-13T20:03:29.377Z,7.50
2019-03-13T20:05:58.138Z,7.40
2019-03-13T20:08:27.164Z,7.40
2019-03-13T20:10:58.079Z,7.40
2019-03-13T20:13:28.258Z,7.40
2019-03-13T20:15:57.480Z,7.40
2019-03-13T20:18:26.388Z,7.40
2019-03-13T20:20:55.299Z,7.40
2019-03-13T20:23:24.107Z,7.40
2019-03-13T20:25:52.963Z,7.40
2019-03-13T20:28:21.828Z,7.40
2019-03-13T20:30:50.680Z,7.30
2019-03-13T20:33:19.490Z,7.30
2019-03-13T20:35:48.477Z,7.20
2019-03-13T20:38:17.207Z,7.00
2019-03-13T20:40:46.080Z,6.90
2019-03-13T20:43:16.208Z,6.90
2019-03-13T20:45:44.946Z,6.80
2019-03-13T20:48:13.711Z,6.80
2019-03-13T20:50:42.442Z,6.80
2019-03-13T20:53:11.319Z,6.80
2019-03-13T20:55:40.647Z,6.80
2019-03-13T20:58:09.623Z,6.80
2019-03-13T21:00:38.397Z,6.80
2019-03-13T21:03:07.193Z,6.90
2019-03-13T21:05:36.032Z,6.90
2019-03-13T21:08:04.900Z,7.00
2019-03-13T21:10:33.739Z,7.00
2019-03-13T21:13:02.491Z,7.00
2019-03-13T21:15:31.240Z,7.00
2019-03-13T21:18:00.091Z,7.00
2019-03-13T21:20:29.196Z,7.00
2019-03-13T21:22:58.682Z,7.00
2019-03-13T21:25:27.877Z,7.00
2019-03-13T21:27:56.816Z,7.00
2019-03-13T21:30:25.961Z,6.90
2019-03-13T21:32:55.140Z,6.90
2019-03-13T21:35:24.296Z,6.90
2019-03-13T21:37:53.119Z,6.90
2019-03-13T21:40:22.094Z,6.80
2019-03-13T21:42:54.138Z,6.90
2019-03-13T21:45:23.141Z,6.90
2019-03-13T21:47:52.520Z,6.90
2019-03-13T21:50:21.267Z,6.80
2019-03-13T21:52:50.496Z,6.90
2019-03-13T21:55:19.432Z,6.90
2019-03-13T21:57:51.702Z,6.80
2019-03-13T22:00:23.041Z,6.80
2019-03-13T22:02:52.126Z,6.80
2019-03-13T22:05:26.156Z,6.80
2019-03-13T22:07:53.097Z,6.80
2019-03-13T22:10:22.158Z,6.80
2019-03-13T22:12:51.068Z,6.80
2019-03-13T22:15:20.066Z,6.80
2019-03-13T22:17:48.875Z,6.80
2019-03-13T22:20:17.756Z,6.80
2019-03-13T22:22:46.701Z,6.70
2019-03-13T22:25:15.710Z,6.80
2019-03-13T22:27:44.752Z,6.70
2019-03-13T22:30:16.446Z,6.70
2019-03-13T22:32:45.333Z,6.70
2019-03-13T22:35:14.433Z,6.80
2019-03-13T22:37:43.256Z,6.80
2019-03-13T22:40:12.335Z,6.70
2019-03-13T22:42:41.375Z,6.70
2019-03-13T22:45:10.939Z,6.70
2019-03-13T22:47:43.109Z,6.70
2019-03-13T22:50:12.235Z,6.60
2019-03-13T22:52:41.088Z,6.60
2019-03-13T22:55:10.092Z,6.60
2019-03-13T22:57:38.872Z,6.60
2019-03-13T23:00:47.380Z,6.60
2019-03-13T23:03:16.748Z,6.60
2019-03-13T23:05:45.845Z,6.60
2019-03-13T23:08:14.773Z,6.70
2019-03-13T23:10:43.676Z,6.70
2019-03-13T23:13:12.748Z,6.70
2019-03-13T23:15:41.768Z,6.70
2019-03-13T23:18:11.011Z,6.70
2019-03-13T23:20:39.866Z,6.70
2019-03-13T23:23:08.619Z,6.60
2019-03-13T23:25:37.392Z,6.70
2019-03-13T23:28:06.492Z,6.70
2019-03-13T23:30:35.356Z,6.60
2019-03-13T23:33:04.172Z,6.60
2019-03-13T23:35:33.235Z,6.60
2019-03-13T23:38:02.131Z,6.60
2019-03-13T23:40:31.127Z,6.60
2019-03-13T23:43:00.270Z,6.60
2019-03-13T23:45:29.120Z,6.60
2019-03-13T23:47:57.866Z,6.60
2019-03-13T23:50:26.939Z,6.60
2019-03-13T23:52:56.005Z,6.60
2019-03-13T23:55:25.086Z,6.60
2019-03-13T23:57:53.851Z,6.60
